Time;durP1;ratioP1;P1;durP2;ratioP2;P2;SDS_P1;SDS_P2;PMS_P1;PMS_P2;Temp;Humidity;BMP_temperature;BMP_pressure;BME280_temperature;BME280_humidity;BME280_pressure;Samples;Min_cycle;Max_cycle;Signal;HPM_P1;HPM_P2
2022/06/27 00:02:23;;;;;;;5.72;1.00;;;;;;;14.04;62.86;100446.38;5102516;28;20137;-78
2022/06/27 00:04:48;;;;;;;5.88;1.00;;;;;;;14.00;62.82;100450.13;5094294;28;20124;-77
2022/06/27 00:07:14;;;;;;;4.55;1.05;;;;;;;13.99;63.16;100448.47;5075321;28;20032;-78
2022/06/27 00:09:39;;;;;;;5.05;1.08;;;;;;;13.93;63.30;100453.38;5102753;28;20032;-77
2022/06/27 00:12:06;;;;;;;4.63;1.02;;;;;;;13.88;63.78;100466.63;5086032;28;20391;-77
2022/06/27 00:14:31;;;;;;;2.30;0.90;;;;;;;13.87;63.58;100462.97;5092285;28;20035;-77
2022/06/27 00:16:57;;;;;;;3.97;1.05;;;;;;;13.83;63.60;100468.38;5106942;28;20012;-77
2022/06/27 00:19:22;;;;;;;5.18;0.95;;;;;;;13.79;63.50;100466.53;5079803;28;20025;-77
2022/06/27 00:21:47;;;;;;;2.33;1.13;;;;;;;13.78;63.67;100473.28;5079493;28;20039;-78
2022/06/27 00:24:13;;;;;;;1.75;0.68;;;;;;;13.72;63.68;100471.75;5116183;28;20430;-77
2022/06/27 00:26:38;;;;;;;3.88;0.98;;;;;;;13.67;64.16;100467.09;5060269;28;20035;-78
2022/06/27 00:29:04;;;;;;;3.97;0.90;;;;;;;13.63;64.23;100464.13;5074831;28;20026;-77
2022/06/27 00:31:29;;;;;;;4.22;1.05;;;;;;;13.58;64.11;100474.59;5106287;28;20023;-78
2022/06/27 00:33:55;;;;;;;4.55;1.00;;;;;;;13.55;64.05;100472.44;5108467;28;20035;-78
2022/06/27 00:36:20;;;;;;;5.20;1.00;;;;;;;13.53;64.56;100474.72;5058896;28;20036;-78
2022/06/27 00:38:46;;;;;;;2.58;0.82;;;;;;;13.48;65.25;100469.25;5109052;28;20024;-78
2022/06/27 00:41:11;;;;;;;4.05;1.10;;;;;;;13.46;64.88;100477.94;5078237;28;20054;-78
2022/06/27 00:43:37;;;;;;;5.20;1.10;;;;;;;13.41;64.75;100472.47;5093329;28;20035;-78
2022/06/27 00:46:02;;;;;;;5.82;1.08;;;;;;;13.37;65.02;100471.44;5105041;28;20031;-78
2022/06/27 00:48:28;;;;;;;6.43;1.77;;;;;;;13.34;65.27;100466.47;5119581;28;20031;-78
2022/06/27 00:50:54;;;;;;;2.95;1.27;;;;;;;13.32;65.30;100475.19;5089790;28;20377;-78
2022/06/27 00:53:19;;;;;;;4.38;0.80;;;;;;;13.32;65.62;100469.59;5094866;28;20031;-78
2022/06/27 00:55:45;;;;;;;2.50;1.02;;;;;;;13.22;65.32;100469.78;5099282;28;20743;-78
2022/06/27 00:58:10;;;;;;;4.07;1.15;;;;;;;13.21;65.70;100475.69;5100471;28;20020;-78
2022/06/27 01:00:35;;;;;;;3.97;1.00;;;;;;;13.16;65.64;100471.88;5098732;28;20028;-78
2022/06/27 01:03:01;;;;;;;2.95;1.00;;;;;;;13.14;65.36;100479.72;5074481;27;20099;-78
2022/06/27 01:05:26;;;;;;;4.05;0.98;;;;;;;13.13;65.74;100472.50;5113113;28;20032;-78
2022/06/27 01:07:52;;;;;;;3.17;0.80;;;;;;;13.08;65.83;100469.00;5079730;28;20039;-78
2022/06/27 01:10:17;;;;;;;3.42;1.10;;;;;;;13.07;65.79;100465.38;5097308;28;20065;-78
2022/06/27 01:12:43;;;;;;;3.83;0.82;;;;;;;13.03;65.93;100471.88;5110055;27;20043;-78
2022/06/27 01:15:09;;;;;;;4.40;1.10;;;;;;;13.00;66.33;100473.34;5088115;28;20040;-78
2022/06/27 01:17:35;;;;;;;6.10;1.00;;;;;;;12.99;65.91;100471.69;5091722;28;20450;-78
2022/06/27 01:20:00;;;;;;;6.43;1.40;;;;;;;12.96;66.24;100475.09;5097457;28;20075;-78
2022/06/27 01:22:26;;;;;;;1.70;0.82;;;;;;;12.92;66.24;100476.84;5096314;28;20122;-77
2022/06/27 01:24:51;;;;;;;6.22;0.90;;;;;;;12.88;66.13;100467.47;5067248;28;20027;-78
2022/06/27 01:27:17;;;;;;;5.13;1.23;;;;;;;12.85;66.39;100465.31;5104180;27;20425;-78
2022/06/27 01:29:42;;;;;;;3.58;1.20;;;;;;;12.84;66.53;100469.22;5094995;28;20024;-79
2022/06/27 01:32:08;;;;;;;4.35;0.77;;;;;;;12.82;66.45;100458.38;5086476;27;20027;-78
2022/06/27 01:34:33;;;;;;;2.63;0.85;;;;;;;12.82;66.83;100461.19;5100443;28;20390;-78
2022/06/27 01:36:59;;;;;;;3.58;1.00;;;;;;;12.79;66.83;100460.94;5096765;27;20053;-78
2022/06/27 01:39:25;;;;;;;2.78;0.88;;;;;;;12.75;66.80;100461.56;5076604;28;20035;-79
2022/06/27 01:41:58;;;;;;;4.10;1.13;;;;;;;12.72;66.88;100459.41;5075297;28;20028;-78
2022/06/27 01:44:28;;;;;;;4.75;1.10;;;;;;;12.69;67.43;100457.25;5085209;28;20039;-78
2022/06/27 01:46:59;;;;;;;2.38;0.75;;;;;;;12.68;67.35;100472.31;5094622;28;20028;-78
2022/06/27 01:49:25;;;;;;;6.07;1.10;;;;;;;12.68;67.53;100472.31;5118717;28;20035;-78
2022/06/27 01:51:51;;;;;;;4.43;1.08;;;;;;;12.66;67.32;100469.00;5090622;28;20479;-78
2022/06/27 01:54:19;;;;;;;4.65;0.98;;;;;;;12.64;67.58;100470.44;5100166;28;20468;-78
2022/06/27 01:56:44;;;;;;;3.55;1.13;;;;;;;12.64;68.00;100473.25;5109524;28;20074;-78
2022/06/27 01:59:10;;;;;;;4.07;1.02;;;;;;;12.62;68.01;100478.28;5083645;28;20491;-78
2022/06/27 02:01:35;;;;;;;3.28;0.95;;;;;;;12.59;68.39;100473.34;5075634;27;20032;-78
2022/06/27 02:04:01;;;;;;;2.45;0.90;;;;;;;12.54;68.19;100477.06;5083119;28;20027;-78
2022/06/27 02:06:30;;;;;;;4.85;1.13;;;;;;;12.53;67.81;100475.38;5063339;28;20100;-78
2022/06/27 02:08:56;;;;;;;3.55;0.93;;;;;;;12.50;68.25;100476.84;5093194;28;20036;-79
2022/06/27 02:11:21;;;;;;;4.32;0.90;;;;;;;12.49;68.17;100472.41;5093673;28;20042;-78
2022/06/27 02:13:47;;;;;;;4.30;0.95;;;;;;;12.44;67.96;100472.50;5094616;28;20043;-79
2022/06/27 02:16:16;;;;;;;4.15;0.88;;;;;;;12.47;68.37;100471.06;5109215;28;20023;-78
2022/06/27 02:18:42;;;;;;;4.22;1.02;;;;;;;12.46;68.34;100477.78;5094152;28;20444;-78
2022/06/27 02:21:11;;;;;;;3.95;0.70;;;;;;;12.44;68.05;100471.69;5110084;28;20035;-78
2022/06/27 02:23:37;;;;;;;2.83;1.00;;;;;;;12.40;68.61;100473.44;5076698;28;20084;-78
2022/06/27 02:26:03;;;;;;;4.28;0.80;;;;;;;12.40;68.85;100471.47;5108472;28;20035;-78
2022/06/27 02:28:28;;;;;;;4.30;0.88;;;;;;;12.39;68.99;100471.75;5099773;28;20023;-79
2022/06/27 02:30:54;;;;;;;2.72;0.80;;;;;;;12.36;69.18;100467.63;5081111;28;20032;-78
2022/06/27 02:33:20;;;;;;;4.57;1.20;;;;;;;12.35;69.14;100463.22;5099430;28;20197;-78
2022/06/27 02:35:45;;;;;;;3.70;0.90;;;;;;;12.31;69.23;100467.72;5082925;28;20030;-78
2022/06/27 02:38:11;;;;;;;6.72;1.08;;;;;;;12.32;69.21;100465.78;5071176;28;20531;-78
2022/06/27 02:40:40;;;;;;;5.10;1.00;;;;;;;12.29;69.54;100464.44;5093323;28;20035;-78
2022/06/27 02:43:07;;;;;;;4.05;0.90;;;;;;;12.30;69.49;100468.88;5094814;28;20558;-78
2022/06/27 02:45:32;;;;;;;5.72;1.20;;;;;;;12.24;69.50;100467.31;5070923;28;20483;-78
2022/06/27 02:47:58;;;;;;;4.25;0.80;;;;;;;12.22;69.38;100464.81;5075505;28;20094;-78
2022/06/27 02:50:25;;;;;;;3.50;1.08;;;;;;;12.22;69.36;100470.38;5108489;28;20063;-78
2022/06/27 02:52:52;;;;;;;2.38;1.00;;;;;;;12.18;69.34;100474.13;5111204;28;20035;-78
2022/06/27 02:55:18;;;;;;;2.80;0.85;;;;;;;12.16;69.50;100482.75;5098953;28;20547;-78
2022/06/27 02:57:49;;;;;;;2.28;0.80;;;;;;;12.13;69.33;100477.81;5054982;27;20024;-78
2022/06/27 03:00:16;;;;;;;2.60;0.90;;;;;;;12.13;69.45;100482.56;5116242;28;20024;-78
2022/06/27 03:02:41;;;;;;;2.97;1.00;;;;;;;12.07;69.44;100474.28;5076273;28;20116;-78
2022/06/27 03:05:07;;;;;;;2.65;0.85;;;;;;;12.10;69.16;100483.16;5110367;28;20062;-78
2022/06/27 03:07:51;;;;;;;5.80;1.27;;;;;;;12.07;69.76;100481.81;5066054;27;20035;-78
2022/06/27 03:10:16;;;;;;;3.92;1.00;;;;;;;12.06;69.98;100477.34;5084830;28;20035;-78
2022/06/27 03:12:42;;;;;;;3.90;0.90;;;;;;;12.01;69.37;100481.06;5093752;28;20036;-78
2022/06/27 03:15:08;;;;;;;1.95;0.75;;;;;;;11.99;69.59;100477.75;5099229;28;20028;-78
2022/06/27 03:17:33;;;;;;;3.08;0.90;;;;;;;11.97;69.69;100480.00;5081410;28;20555;-78
2022/06/27 03:19:59;;;;;;;3.88;1.10;;;;;;;11.98;70.03;100490.03;5072534;28;20081;-78
2022/06/27 03:22:24;;;;;;;3.10;1.00;;;;;;;11.98;70.49;100480.84;5105266;28;20038;-79
2022/06/27 03:24:50;;;;;;;3.97;1.00;;;;;;;11.95;70.14;100487.00;5097719;28;20112;-78
2022/06/27 03:27:15;;;;;;;2.70;0.77;;;;;;;11.96;70.33;100488.69;5117210;27;20027;-78
2022/06/27 03:29:41;;;;;;;3.40;0.90;;;;;;;11.92;70.19;100482.06;5090845;28;20043;-78
2022/06/27 03:32:07;;;;;;;4.35;1.20;;;;;;;11.97;70.10;100493.09;5081641;28;20032;-79
2022/06/27 03:34:32;;;;;;;4.57;1.20;;;;;;;11.97;70.19;100495.91;5085797;28;20024;-78
2022/06/27 03:36:58;;;;;;;3.25;1.05;;;;;;;11.93;70.75;100500.44;5089404;28;20515;-78
2022/06/27 03:39:24;;;;;;;4.70;0.93;;;;;;;11.94;71.36;100508.47;5107828;28;20031;-78
2022/06/27 03:41:49;;;;;;;4.82;1.10;;;;;;;11.94;71.73;100515.97;5110225;28;20477;-78
2022/06/27 03:44:15;;;;;;;5.70;1.10;;;;;;;11.95;71.39;100512.06;5094833;28;20039;-78
2022/06/27 03:46:41;;;;;;;2.00;0.90;;;;;;;11.96;72.00;100516.50;5091813;27;20031;-78
2022/06/27 03:51:50;;;;;;;6.22;1.20;;;;;;;11.97;71.67;100523.72;5099896;28;20048;-78
2022/06/27 03:54:16;;;;;;;5.10;1.00;;;;;;;11.98;71.78;100520.66;5105130;28;20031;-79
2022/06/27 03:56:41;;;;;;;4.07;1.40;;;;;;;11.99;71.18;100522.28;5084051;28;20043;-78
2022/06/27 03:59:07;;;;;;;3.20;0.93;;;;;;;12.00;72.00;100517.56;5107055;28;20036;-78
2022/06/27 04:01:32;;;;;;;3.00;1.10;;;;;;;12.02;71.53;100527.25;5064353;28;20498;-78
2022/06/27 04:03:58;;;;;;;4.45;1.20;;;;;;;12.02;71.57;100526.44;5095577;28;20039;-78
2022/06/27 04:06:23;;;;;;;4.78;0.90;;;;;;;12.04;71.80;100525.00;5106720;28;20039;-79
2022/06/27 04:08:49;;;;;;;3.17;1.08;;;;;;;12.05;71.88;100517.47;5074090;28;20026;-79
2022/06/27 04:11:15;;;;;;;1.85;0.80;;;;;;;12.03;71.93;100536.44;5108838;28;20039;-79
2022/06/27 04:13:40;;;;;;;3.10;1.10;;;;;;;12.03;72.07;100531.69;5090618;28;20016;-79
2022/06/27 04:16:06;;;;;;;3.40;1.10;;;;;;;12.05;72.07;100536.97;5108876;28;20161;-78
2022/06/27 04:18:32;;;;;;;2.42;1.05;;;;;;;12.03;71.92;100540.03;5089499;28;20036;-78
2022/06/27 04:20:57;;;;;;;4.35;1.20;;;;;;;12.01;72.52;100533.13;5107418;28;20030;-79
2022/06/27 04:23:23;;;;;;;2.72;1.00;;;;;;;12.01;72.13;100542.31;5097819;28;20399;-79
2022/06/27 04:25:48;;;;;;;3.67;1.00;;;;;;;12.00;72.27;100540.63;5079830;28;20020;-79
2022/06/27 04:28:14;;;;;;;2.33;1.00;;;;;;;11.96;72.26;100538.78;5097056;28;20034;-78
2022/06/27 04:30:42;;;;;;;2.58;0.93;;;;;;;11.97;72.06;100537.63;5077746;28;20032;-79
2022/06/27 04:33:08;;;;;;;3.38;0.95;;;;;;;11.97;71.66;100534.84;5097418;28;20038;-79
2022/06/27 04:35:33;;;;;;;6.97;1.52;;;;;;;11.96;72.35;100545.16;5085204;28;20024;-79
2022/06/27 04:38:00;;;;;;;2.80;1.02;;;;;;;11.94;72.39;100543.81;5079241;28;20055;-79
2022/06/27 04:40:26;;;;;;;3.25;1.10;;;;;;;11.89;72.00;100541.94;5076585;28;20103;-79
2022/06/27 04:42:51;;;;;;;4.28;1.00;;;;;;;11.90;72.25;100562.25;5080942;28;20066;-79
2022/06/27 04:45:18;;;;;;;3.80;1.00;;;;;;;11.87;72.54;100548.91;5074156;28;20028;-78
2022/06/27 04:47:44;;;;;;;3.38;1.00;;;;;;;11.86;72.19;100559.22;5081044;28;20042;-79
2022/06/27 04:50:11;;;;;;;5.63;1.30;;;;;;;11.84;72.82;100558.69;5096137;28;20677;-78
2022/06/27 04:52:39;;;;;;;3.38;0.85;;;;;;;11.82;72.69;100560.94;5100975;28;20030;-79
2022/06/27 04:55:09;;;;;;;4.53;1.17;;;;;;;11.79;73.03;100556.81;5076918;28;20039;-79
2022/06/27 04:57:35;;;;;;;3.10;0.93;;;;;;;11.80;72.93;100549.28;5102809;27;20019;-79
2022/06/27 05:00:03;;;;;;;3.25;1.02;;;;;;;11.83;73.32;100551.47;5078068;27;20034;-79
2022/06/27 05:02:29;;;;;;;5.05;1.17;;;;;;;11.89;73.97;100549.47;5092080;28;20102;-79
2022/06/27 05:04:54;;;;;;;3.25;1.15;;;;;;;11.96;76.46;100561.88;5080546;28;20028;-78
2022/06/27 05:07:22;;;;;;;4.18;1.00;;;;;;;12.05;76.99;100578.72;5092587;28;20028;-79
2022/06/27 05:09:47;;;;;;;2.65;0.88;;;;;;;12.16;79.06;100579.38;5093980;28;20043;-79
2022/06/27 05:12:12;;;;;;;4.13;0.90;;;;;;;12.30;83.15;100583.03;5113279;28;20434;-79
2022/06/27 05:14:38;;;;;;;5.88;1.30;;;;;;;12.42;83.67;100579.78;5115661;28;20036;-78
2022/06/27 05:17:04;;;;;;;4.93;1.17;;;;;;;12.57;83.90;100587.88;5111604;28;20069;-78
2022/06/27 05:19:30;;;;;;;6.10;1.38;;;;;;;12.75;80.46;100586.97;5097449;28;20024;-78
2022/06/27 05:21:56;;;;;;;3.33;0.90;;;;;;;12.94;76.82;100583.28;5088488;28;20081;-78
2022/06/27 05:24:21;;;;;;;3.90;0.88;;;;;;;13.13;75.00;100586.00;5110574;28;20514;-78
2022/06/27 05:26:47;;;;;;;2.67;0.80;;;;;;;13.32;74.05;100585.94;5092578;28;20026;-79
2022/06/27 05:29:13;;;;;;;4.63;1.13;;;;;;;13.50;73.40;100587.75;5099699;28;20039;-79
2022/06/27 05:31:39;;;;;;;4.82;1.00;;;;;;;13.72;72.52;100588.97;5097507;28;20024;-79
2022/06/27 05:34:04;;;;;;;2.95;0.75;;;;;;;13.90;71.55;100590.81;5092519;28;20038;-79
2022/06/27 05:36:30;;;;;;;2.88;0.70;;;;;;;14.11;70.76;100596.72;5080171;28;20587;-78
2022/06/27 05:38:55;;;;;;;5.43;0.82;;;;;;;14.33;70.21;100600.69;5109982;28;20036;-79
2022/06/27 05:41:21;;;;;;;4.30;1.15;;;;;;;14.52;69.10;100602.16;5100706;28;20530;-78
2022/06/27 05:43:46;;;;;;;4.30;1.30;;;;;;;14.74;68.87;100603.28;5089434;28;20429;-78
2022/06/27 05:46:12;;;;;;;3.97;0.90;;;;;;;14.98;67.97;100605.72;5101078;28;20032;-79
2022/06/27 05:48:38;;;;;;;3.60;0.93;;;;;;;15.17;67.60;100597.06;5075582;28;20028;-79
2022/06/27 05:51:03;;;;;;;4.03;0.93;;;;;;;15.40;66.95;100593.03;5090479;28;20032;-79
2022/06/27 05:53:30;;;;;;;5.00;1.10;;;;;;;15.63;66.56;100598.56;5064506;28;20545;-79
2022/06/27 05:55:55;;;;;;;4.32;0.82;;;;;;;15.82;65.85;100599.13;5095224;28;20096;-79
2022/06/27 05:58:21;;;;;;;5.03;1.23;;;;;;;16.03;65.42;100604.88;5077439;28;20036;-80
2022/06/27 06:00:46;;;;;;;3.75;0.80;;;;;;;16.23;65.08;100614.59;5111007;28;20357;-80
2022/06/27 06:03:12;;;;;;;3.90;1.25;;;;;;;16.44;64.32;100611.16;5096525;28;20032;-80
2022/06/27 06:05:37;;;;;;;6.35;0.82;;;;;;;16.65;63.68;100614.91;5081804;28;20111;-79
2022/06/27 06:08:04;;;;;;;3.28;0.90;;;;;;;16.84;63.21;100616.56;5095710;27;20365;-79
2022/06/27 06:10:33;;;;;;;2.30;1.05;;;;;;;17.05;62.77;100616.66;5076091;28;20386;-79
2022/06/27 06:13:01;;;;;;;5.57;1.15;;;;;;;17.26;62.35;100617.56;5094245;28;20023;-79
2022/06/27 06:15:27;;;;;;;5.35;1.10;;;;;;;17.45;61.81;100631.19;5086977;28;20095;-79
2022/06/27 06:17:54;;;;;;;4.50;1.10;;;;;;;17.65;61.98;100629.59;5091185;28;20039;-72
2022/06/27 06:20:20;;;;;;;3.95;0.82;;;;;;;17.84;61.49;100643.22;5110139;28;20125;-73
2022/06/27 06:22:45;;;;;;;5.55;1.13;;;;;;;18.00;61.44;100641.47;5093600;28;20061;-70
2022/06/27 06:25:11;;;;;;;8.40;1.27;;;;;;;18.27;61.13;100658.97;5111626;28;20461;-73
2022/06/27 06:27:38;;;;;;;5.03;1.10;;;;;;;18.42;60.18;100652.72;5106246;28;20425;-71
2022/06/27 06:30:07;;;;;;;6.53;1.00;;;;;;;18.61;60.42;100660.69;5079809;28;20028;-72
2022/06/27 06:32:34;;;;;;;6.95;1.27;;;;;;;18.80;59.21;100650.91;5080113;28;20101;-72
2022/06/27 06:35:00;;;;;;;4.68;1.30;;;;;;;18.95;59.40;100653.09;5109978;28;20032;-72
2022/06/27 06:37:27;;;;;;;5.40;1.00;;;;;;;19.12;58.46;100652.09;5079143;28;20028;-72
2022/06/27 06:39:53;;;;;;;6.18;0.93;;;;;;;19.26;58.59;100663.84;5065828;28;20072;-71
2022/06/27 06:42:19;;;;;;;5.35;1.27;;;;;;;19.39;58.24;100664.69;5107651;28;20032;-72
2022/06/27 06:44:45;;;;;;;5.80;1.05;;;;;;;19.54;58.10;100668.81;5089963;28;20487;-72
2022/06/27 06:47:12;;;;;;;4.05;1.00;;;;;;;19.66;57.39;100660.38;5099136;28;20057;-72
2022/06/27 06:49:39;;;;;;;5.00;1.38;;;;;;;19.81;57.31;100662.50;5109453;28;20035;-72
2022/06/27 06:52:05;;;;;;;5.90;1.27;;;;;;;19.92;57.45;100662.00;5091977;28;20047;-72
2022/06/27 06:54:31;;;;;;;4.70;1.00;;;;;;;20.05;56.93;100672.09;5063573;28;20043;-72
2022/06/27 06:56:57;;;;;;;5.65;1.08;;;;;;;20.23;56.76;100662.19;5078630;28;20040;-72
2022/06/27 06:59:22;;;;;;;4.47;1.05;;;;;;;20.36;56.01;100665.78;5096848;28;20049;-72
2022/06/27 07:01:48;;;;;;;4.88;1.40;;;;;;;20.49;56.35;100669.41;5099241;28;20031;-72
2022/06/27 07:04:15;;;;;;;7.20;1.08;;;;;;;20.64;55.96;100671.50;5093888;28;20031;-72
2022/06/27 07:06:40;;;;;;;4.10;1.08;;;;;;;20.74;55.83;100676.63;5074080;28;20422;-72
2022/06/27 07:09:06;;;;;;;4.18;0.93;;;;;;;20.95;55.43;100675.63;5076390;28;20028;-72
2022/06/27 07:11:31;;;;;;;4.13;1.05;;;;;;;21.09;54.85;100692.09;5088131;28;20040;-71
2022/06/27 07:13:57;;;;;;;4.55;1.00;;;;;;;21.22;54.76;100690.06;5086876;28;20035;-72
2022/06/27 07:16:24;;;;;;;6.38;1.10;;;;;;;21.45;53.84;100693.91;5088490;28;20023;-72
2022/06/27 07:18:50;;;;;;;6.75;1.30;;;;;;;21.55;53.71;100699.03;5097572;28;20089;-72
2022/06/27 07:21:16;;;;;;;4.95;0.90;;;;;;;21.75;53.35;100710.44;5115702;28;20035;-72
2022/06/27 07:23:43;;;;;;;5.63;0.93;;;;;;;21.84;53.36;100711.06;5071065;27;20106;-71
2022/06/27 07:26:09;;;;;;;6.05;1.40;;;;;;;21.98;52.19;100711.44;5065726;28;20142;-72
2022/06/27 07:28:35;;;;;;;5.90;1.08;;;;;;;22.15;52.24;100704.56;5077603;28;20024;-72
2022/06/27 07:31:01;;;;;;;4.68;0.85;;;;;;;22.27;51.84;100709.31;5108722;28;20023;-72
2022/06/27 07:33:27;;;;;;;8.25;1.23;;;;;;;22.36;51.21;100715.56;5081473;28;20057;-72
2022/06/27 07:35:53;;;;;;;3.33;0.90;;;;;;;22.51;51.21;100711.03;5098546;28;20032;-72
2022/06/27 07:38:18;;;;;;;5.53;1.13;;;;;;;22.69;50.89;100717.13;5090274;28;20057;-72
2022/06/27 07:40:44;;;;;;;6.05;1.30;;;;;;;22.77;50.59;100724.56;5094963;28;20031;-72
2022/06/27 07:43:13;;;;;;;6.75;1.10;;;;;;;22.89;50.42;100726.44;5057196;28;20031;-72
2022/06/27 07:45:39;;;;;;;10.13;1.75;;;;;;;23.01;49.56;100728.31;5091673;28;20028;-72
2022/06/27 07:48:06;;;;;;;9.55;1.52;;;;;;;23.11;49.66;100722.88;5081235;28;20039;-72
2022/06/27 07:50:41;;;;;;;7.88;1.40;;;;;;;23.23;49.37;100736.03;5110634;28;20476;-72
2022/06/27 07:53:12;;;;;;;5.93;1.48;;;;;;;23.39;48.74;100739.59;5080157;28;20431;-72
2022/06/27 07:55:58;;;;;;;4.95;1.27;;;;;;;23.44;48.40;100735.66;5089496;28;20109;-72
2022/06/27 07:58:33;;;;;;;10.35;1.48;;;;;;;23.45;48.59;100739.28;5113120;27;20035;-72
2022/06/27 08:01:04;;;;;;;5.63;1.20;;;;;;;23.48;48.54;100741.38;5081636;28;20035;-72
2022/06/27 08:03:44;;;;;;;4.55;1.08;;;;;;;23.34;48.91;100748.41;5057774;28;20080;-72
2022/06/27 08:06:24;;;;;;;4.65;1.10;;;;;;;23.28;48.91;100738.56;5097493;28;20042;-72
2022/06/27 08:08:54;;;;;;;8.10;0.90;;;;;;;23.20;49.29;100739.63;5079271;28;20024;-72
2022/06/27 08:11:22;;;;;;;7.32;1.35;;;;;;;23.12;49.26;100740.69;5108312;28;20032;-71
2022/06/27 08:13:48;;;;;;;8.77;1.13;;;;;;;23.13;49.84;100743.16;5080207;28;20077;-72
2022/06/27 08:16:14;;;;;;;6.15;1.00;;;;;;;23.17;49.86;100740.38;5068677;28;20031;-72
2022/06/27 08:18:50;;;;;;;5.90;1.13;;;;;;;23.25;49.80;100739.31;5083433;28;20031;-72
2022/06/27 08:21:17;;;;;;;6.43;1.25;;;;;;;23.36;49.60;100751.69;5092281;28;20034;-72
2022/06/27 08:23:43;;;;;;;8.27;1.08;;;;;;;23.44;48.16;100743.34;5089018;28;20035;-72
2022/06/27 08:26:09;;;;;;;4.43;1.10;;;;;;;23.55;48.86;100748.00;5108339;28;20023;-72
2022/06/27 08:28:35;;;;;;;5.28;1.20;;;;;;;23.59;48.13;100742.38;5094817;28;20028;-72
2022/06/27 08:31:03;;;;;;;6.10;1.10;;;;;;;23.70;48.41;100745.41;5094825;28;20024;-72
2022/06/27 08:33:30;;;;;;;6.22;1.60;;;;;;;23.70;47.91;100749.06;5077014;28;20110;-72
2022/06/27 08:35:56;;;;;;;4.95;0.98;;;;;;;23.75;48.14;100750.81;5126986;28;20044;-71
2022/06/27 08:38:22;;;;;;;5.40;1.00;;;;;;;23.85;47.67;100748.16;5094690;28;20566;-71
2022/06/27 08:40:50;;;;;;;5.18;1.17;;;;;;;23.91;47.37;100759.19;5064201;28;20100;-71
2022/06/27 08:43:16;;;;;;;4.57;1.20;;;;;;;23.89;47.03;100765.22;5091759;28;20479;-71
2022/06/27 08:45:43;;;;;;;8.18;1.23;;;;;;;23.95;46.61;100755.19;5097711;28;20097;-71
2022/06/27 08:48:09;;;;;;;4.32;0.80;;;;;;;23.97;46.62;100757.66;5076082;28;20040;-71
2022/06/27 08:50:35;;;;;;;5.53;1.27;;;;;;;24.01;45.41;100758.53;5097648;28;20042;-71
2022/06/27 08:53:01;;;;;;;8.02;1.08;;;;;;;24.09;44.83;100755.44;5090389;28;20032;-71
2022/06/27 08:55:27;;;;;;;6.47;1.00;;;;;;;24.20;45.11;100752.78;5089655;28;20148;-72
2022/06/27 08:57:52;;;;;;;7.07;0.95;;;;;;;24.36;45.45;100751.81;5093054;28;20039;-71
2022/06/27 09:00:18;;;;;;;5.03;0.95;;;;;;;24.49;46.01;100750.41;5115914;28;20038;-72
2022/06/27 09:02:44;;;;;;;5.75;0.93;;;;;;;24.65;44.42;100745.34;5072869;28;20099;-73
2022/06/27 09:05:15;;;;;;;3.53;0.90;;;;;;;24.86;44.91;100750.50;5086353;28;20422;-72
2022/06/27 09:07:48;;;;;;;8.63;1.05;;;;;;;25.00;43.23;100752.72;5105133;28;20119;-72
2022/06/27 09:10:27;;;;;;;;;;;;;;;25.18;43.96;100748.13;5108531;28;20038;-72
2022/06/27 09:12:56;;;;;;;4.95;0.75;;;;;;;25.33;41.91;100748.28;5111541;28;19965;-72
2022/06/27 09:15:44;;;;;;;4.03;0.63;;;;;;;25.57;43.16;100753.38;5094913;28;20039;-72
2022/06/27 09:18:10;;;;;;;4.90;0.95;;;;;;;25.75;42.47;100752.75;5093813;28;20043;-72
2022/06/27 09:20:48;;;;;;;3.55;0.65;;;;;;;25.98;42.57;100758.28;5098155;28;20032;-72
2022/06/27 09:23:26;;;;;;;5.13;1.08;;;;;;;26.18;42.46;100767.38;5119576;28;20039;-71
2022/06/27 09:26:02;;;;;;;4.93;0.93;;;;;;;26.34;40.85;100758.53;5110386;28;20491;-72
2022/06/27 09:28:57;;;;;;;3.70;0.90;;;;;;;26.54;41.33;100759.91;5115028;28;20484;-72
2022/06/27 09:31:25;;;;;;;3.60;0.80;;;;;;;26.69;40.12;100757.97;5083820;28;20103;-72
2022/06/27 09:34:01;;;;;;;4.82;0.85;;;;;;;26.85;39.20;100751.94;5112418;28;20349;-72
2022/06/27 09:36:28;;;;;;;2.75;0.63;;;;;;;27.01;38.33;100754.47;5099666;28;20051;-72
2022/06/27 09:38:54;;;;;;;2.85;0.93;;;;;;;27.22;38.50;100763.16;5098465;28;20111;-72
2022/06/27 09:41:20;;;;;;;2.90;0.75;;;;;;;27.34;37.46;100762.75;5099893;28;20028;-72
2022/06/27 09:43:46;;;;;;;3.45;0.85;;;;;;;27.44;36.83;100761.13;5091653;28;20020;-72
2022/06/27 09:46:13;;;;;;;6.13;1.00;;;;;;;27.52;36.71;100759.94;5095054;28;20061;-72
2022/06/27 09:48:40;;;;;;;4.80;1.05;;;;;;;27.47;36.92;100768.91;5067069;28;20507;-72
2022/06/27 09:51:06;;;;;;;4.43;0.73;;;;;;;27.50;37.45;100762.41;5066207;28;20071;-72
2022/06/27 09:53:31;;;;;;;2.83;0.68;;;;;;;27.49;37.22;100755.03;5077550;28;20028;-72
2022/06/27 09:55:58;;;;;;;2.97;0.70;;;;;;;27.52;38.34;100768.50;5097027;28;20055;-72
2022/06/27 09:58:23;;;;;;;3.28;0.77;;;;;;;27.55;36.90;100766.88;5094509;28;20059;-72
2022/06/27 10:00:49;;;;;;;3.40;0.60;;;;;;;27.60;37.05;100758.72;5094128;28;20024;-72
2022/06/27 10:03:15;;;;;;;5.10;0.80;;;;;;;27.66;36.69;100755.50;5075622;28;20499;-72
2022/06/27 10:05:43;;;;;;;4.07;0.80;;;;;;;27.81;37.78;100757.19;5082162;28;20059;-72
2022/06/27 10:08:08;;;;;;;6.15;1.00;;;;;;;27.91;35.92;100762.06;5076618;28;20038;-72
2022/06/27 10:11:08;;;;;;;4.80;0.80;;;;;;;28.07;36.43;100761.66;5092894;28;20027;-72
2022/06/27 10:13:39;;;;;;;2.90;0.70;;;;;;;28.21;35.83;100755.94;5090563;28;20038;-72
2022/06/27 10:16:09;;;;;;;1.73;0.60;;;;;;;28.38;35.81;100762.03;5093533;28;20031;-72
2022/06/27 10:19:05;;;;;;;3.70;0.60;;;;;;;28.56;35.12;100750.63;5108013;28;20035;-72
2022/06/27 10:21:37;;;;;;;3.58;0.73;;;;;;;28.69;34.57;100749.75;5067305;28;20142;-72
2022/06/27 10:24:28;;;;;;;5.68;0.70;;;;;;;28.88;35.52;100744.81;5092713;28;20049;-72
2022/06/27 10:26:58;;;;;;;4.65;0.90;;;;;;;28.95;34.68;100751.31;5117145;28;20042;-72
2022/06/27 10:29:29;;;;;;;5.82;1.08;;;;;;;28.96;34.75;100752.94;5075822;28;20039;-72
2022/06/27 10:31:58;;;;;;;3.40;0.80;;;;;;;29.01;34.59;100753.75;5121262;27;20062;-72
2022/06/27 10:34:44;;;;;;;4.95;0.80;;;;;;;29.13;33.74;100745.53;5108188;27;20031;-72
2022/06/27 10:37:19;;;;;;;2.38;0.70;;;;;;;29.17;33.02;100749.19;5120637;27;20062;-72
2022/06/27 10:39:44;;;;;;;3.97;0.73;;;;;;;29.23;32.95;100754.50;5094128;28;20031;-72
2022/06/27 10:42:43;;;;;;;4.05;0.70;;;;;;;29.37;33.51;100745.84;5096324;28;20024;-72
2022/06/27 10:45:21;;;;;;;2.70;0.55;;;;;;;29.51;33.27;100745.75;5111703;28;20418;-72
2022/06/27 10:47:50;;;;;;;4.55;0.60;;;;;;;29.69;33.53;100756.28;5094312;28;20056;-72
2022/06/27 10:50:17;;;;;;;4.95;0.60;;;;;;;29.75;32.08;100746.00;5107920;28;20112;-72
2022/06/27 10:52:43;;;;;;;2.40;0.70;;;;;;;29.93;33.01;100740.97;5089590;28;20043;-72
2022/06/27 10:55:25;;;;;;;4.13;0.65;;;;;;;30.00;31.34;100740.06;5108346;28;20047;-73
2022/06/27 10:57:54;;;;;;;1.80;0.47;;;;;;;30.13;31.27;100744.06;5072652;27;20506;-72
2022/06/27 11:00:38;;;;;;;4.32;0.80;;;;;;;30.22;30.66;100735.00;5104665;28;20035;-72
2022/06/27 11:03:06;;;;;;;1.65;0.43;;;;;;;30.24;30.66;100736.19;5109286;28;20058;-72
2022/06/27 11:05:51;;;;;;;2.65;0.60;;;;;;;30.35;31.11;100732.44;5108220;28;20020;-72
2022/06/27 11:08:16;;;;;;;3.83;0.55;;;;;;;30.37;31.65;100744.25;5074179;28;20119;-72
2022/06/27 11:10:43;;;;;;;4.10;0.60;;;;;;;30.40;31.05;100734.84;5090363;28;20031;-72
2022/06/27 11:13:08;;;;;;;4.88;0.85;;;;;;;30.31;30.53;100735.31;5091274;28;20031;-73
2022/06/27 11:15:34;;;;;;;3.55;0.73;;;;;;;30.28;30.80;100741.88;5058347;28;20020;-71
2022/06/27 11:17:59;;;;;;;3.72;0.70;;;;;;;30.21;31.42;100744.81;5086384;28;20034;-72
2022/06/27 11:20:25;;;;;;;3.05;0.70;;;;;;;30.12;31.51;100747.34;5081936;27;20039;-72
2022/06/27 11:23:01;;;;;;;3.95;1.02;;;;;;;29.97;31.96;100747.44;5073447;28;20028;-72
2022/06/27 11:25:28;;;;;;;2.80;0.57;;;;;;;29.76;31.79;100742.72;5059573;28;20032;-72
2022/06/27 11:27:57;;;;;;;3.88;0.80;;;;;;;29.64;31.94;100739.53;5064094;28;20039;-72
2022/06/27 11:33:27;;;;;;;2.60;0.65;;;;;;;29.39;32.30;100746.19;5100919;28;20096;-72